Time;durP1;ratioP1;P1;durP2;ratioP2;P2;SDS_P1;SDS_P2;PMS_P1;PMS_P2;Temp;Humidity;BMP_temperature;BMP_pressure;BME280_temperature;BME280_humidity;BME280_pressure;Samples;Min_cycle;Max_cycle;Signal;HPM_P1;HPM_P2
2022/11/08 00:02:26;;;;;;;10.15;3.67;;;;;;;;;;4911939;29;20509;-61
2022/11/08 00:04:53;;;;;;;6.00;3.78;;;;;;;;;;4896701;29;20511;-62
2022/11/08 00:15:37;;;;;;;7.30;4.03;;;;;;;;;;4897876;29;20044;-62
2022/11/08 00:18:04;;;;;;;9.75;4.50;;;;;;;;;;4897619;29;20041;-62
2022/11/08 00:20:31;;;;;;;6.57;3.30;;;;;;;;;;4897925;29;20171;-62
2022/11/08 00:22:57;;;;;;;9.27;3.72;;;;;;;;;;4897240;29;20051;-61
2022/11/08 00:25:24;;;;;;;6.30;3.40;;;;;;;;;;4897859;29;20032;-61
2022/11/08 00:27:50;;;;;;;11.38;4.10;;;;;;;;;;4896333;29;20048;-62
2022/11/08 00:30:17;;;;;;;7.60;3.83;;;;;;;;;;4896480;29;20140;-62
2022/11/08 00:32:43;;;;;;;5.78;2.85;;;;;;;;;;4895561;29;20064;-62
2022/11/08 00:35:09;;;;;;;6.78;3.20;;;;;;;;;;4897724;29;20044;-61
2022/11/08 00:37:36;;;;;;;7.25;3.13;;;;;;;;;;4897386;29;20521;-62
2022/11/08 00:40:02;;;;;;;7.03;3.45;;;;;;;;;;4897450;29;20108;-61
2022/11/08 00:42:29;;;;;;;7.38;4.60;;;;;;;;;;4896892;29;20040;-61
2022/11/08 00:44:55;;;;;;;9.98;4.43;;;;;;;;;;4897690;29;20047;-61
2022/11/08 00:47:22;;;;;;;11.27;4.72;;;;;;;;;;4898044;29;20048;-62
2022/11/08 00:49:48;;;;;;;7.55;4.05;;;;;;;;;;4897938;29;20051;-63
2022/11/08 00:52:14;;;;;;;10.55;4.25;;;;;;;;;;4896392;29;20463;-61
2022/11/08 00:54:41;;;;;;;8.20;4.28;;;;;;;;;;4897622;29;20054;-63
2022/11/08 00:57:07;;;;;;;6.07;3.97;;;;;;;;;;4898232;29;20056;-62
2022/11/08 00:59:34;;;;;;;7.03;3.38;;;;;;;;;;4898126;29;20055;-62
2022/11/08 01:02:00;;;;;;;11.40;3.67;;;;;;;;;;4897123;29;20355;-61
2022/11/08 01:04:27;;;;;;;4.88;3.13;;;;;;;;;;4897776;29;20646;-61
2022/11/08 01:06:53;;;;;;;5.93;3.85;;;;;;;;;;4897302;29;20048;-62
2022/11/08 01:09:19;;;;;;;6.03;2.85;;;;;;;;;;4897123;29;20048;-62
2022/11/08 01:11:46;;;;;;;6.53;3.05;;;;;;;;;;4895144;29;20048;-61
2022/11/08 01:14:13;;;;;;;6.47;3.10;;;;;;;;;;4897233;29;20121;-61
2022/11/08 01:16:40;;;;;;;6.90;3.80;;;;;;;;;;4896921;29;20409;-61
2022/11/08 01:19:07;;;;;;;5.13;3.10;;;;;;;;;;4911345;29;20045;-61
2022/11/08 01:21:34;;;;;;;13.52;3.90;;;;;;;;;;4911415;29;20494;-61
2022/11/08 01:24:00;;;;;;;7.32;3.97;;;;;;;;;;4896757;29;20051;-61
2022/11/08 01:26:27;;;;;;;6.13;3.97;;;;;;;;;;4896941;29;20064;-62
2022/11/08 01:28:54;;;;;;;5.07;3.33;;;;;;;;;;4895786;29;20051;-63
2022/11/08 01:31:22;;;;;;;9.70;3.22;;;;;;;;;;4895785;29;20064;-61
2022/11/08 01:33:49;;;;;;;9.15;3.58;;;;;;;;;;4910838;29;20056;-62
2022/11/08 01:36:18;;;;;;;7.30;3.13;;;;;;;;;;4895730;29;20048;-62
2022/11/08 01:38:45;;;;;;;11.07;3.40;;;;;;;;;;4895500;29;20040;-61
2022/11/08 01:41:12;;;;;;;7.72;2.80;;;;;;;;;;4896629;29;20370;-60
2022/11/08 01:43:57;;;;;;;4.82;2.85;;;;;;;;;;4910721;29;20064;-61
2022/11/08 01:46:31;;;;;;;15.00;4.18;;;;;;;;;;4896847;29;20061;-61
2022/11/08 01:48:58;;;;;;;;;;;;;;;;;;4897120;29;20059;-61
2022/11/08 01:51:26;;;;;;;4.60;2.20;;;;;;;;;;4914120;29;19923;-63
2022/11/08 01:53:53;;;;;;;8.63;3.17;;;;;;;;;;4900225;29;20048;-62
2022/11/08 01:56:19;;;;;;;4.60;2.63;;;;;;;;;;4900787;29;20044;-62
2022/11/08 01:58:47;;;;;;;7.28;3.03;;;;;;;;;;4914807;29;20056;-62
2022/11/08 02:01:14;;;;;;;8.18;2.70;;;;;;;;;;4900081;29;20044;-63
2022/11/08 02:03:40;;;;;;;4.85;2.50;;;;;;;;;;4900040;29;20037;-62
2022/11/08 02:06:07;;;;;;;5.07;2.05;;;;;;;;;;4898885;29;20143;-62
2022/11/08 02:08:40;;;;;;;5.25;2.30;;;;;;;;;;4899058;29;20044;-62
2022/11/08 02:11:08;;;;;;;5.25;2.72;;;;;;;;;;4915217;29;20048;-62
2022/11/08 02:13:36;;;;;;;5.32;2.40;;;;;;;;;;4899570;29;20113;-62
2022/11/08 02:16:05;;;;;;;3.63;2.40;;;;;;;;;;4914478;29;20048;-62
2022/11/08 02:18:32;;;;;;;5.05;2.60;;;;;;;;;;4898524;29;20130;-62
2022/11/08 02:21:01;;;;;;;6.15;2.38;;;;;;;;;;4899809;29;20044;-62
2022/11/08 02:23:28;;;;;;;3.40;2.10;;;;;;;;;;4898064;29;20135;-62
2022/11/08 02:25:54;;;;;;;3.38;2.05;;;;;;;;;;4899715;29;20056;-62
2022/11/08 02:28:21;;;;;;;4.15;2.47;;;;;;;;;;4898459;29;20104;-62
2022/11/08 02:30:47;;;;;;;7.90;2.35;;;;;;;;;;4899774;29;20462;-62
2022/11/08 02:33:15;;;;;;;4.20;2.50;;;;;;;;;;4897710;29;20048;-62
2022/11/08 02:35:41;;;;;;;6.38;2.63;;;;;;;;;;4899891;29;20040;-62
2022/11/08 02:38:08;;;;;;;4.88;2.80;;;;;;;;;;4898349;29;20048;-62
2022/11/08 02:40:44;;;;;;;4.00;2.40;;;;;;;;;;4899502;29;20041;-62
2022/11/08 02:43:11;;;;;;;3.83;2.60;;;;;;;;;;4898827;29;20067;-62
2022/11/08 02:45:37;;;;;;;2.58;2.03;;;;;;;;;;4913817;29;20441;-62
2022/11/08 02:48:04;;;;;;;5.03;2.50;;;;;;;;;;4898183;29;20044;-62
2022/11/08 02:50:30;;;;;;;6.93;2.47;;;;;;;;;;4898851;29;20056;-62
2022/11/08 02:52:57;;;;;;;4.18;1.80;;;;;;;;;;4899976;29;20497;-62
2022/11/08 02:55:23;;;;;;;7.20;2.55;;;;;;;;;;4900404;29;20100;-62
2022/11/08 02:57:50;;;;;;;5.07;2.20;;;;;;;;;;4900846;29;20059;-62
2022/11/08 03:00:16;;;;;;;5.53;2.30;;;;;;;;;;4898599;29;20464;-61
2022/11/08 03:02:43;;;;;;;4.55;1.92;;;;;;;;;;4897099;29;20577;-62
2022/11/08 03:05:09;;;;;;;6.20;2.30;;;;;;;;;;4899188;29;20044;-61
2022/11/08 03:07:36;;;;;;;7.20;3.00;;;;;;;;;;4899185;29;20048;-62
2022/11/08 03:10:02;;;;;;;14.52;6.70;;;;;;;;;;4899567;29;20041;-62
2022/11/08 03:12:28;;;;;;;5.85;3.42;;;;;;;;;;4898400;29;20080;-63
2022/11/08 03:14:55;;;;;;;4.95;3.03;;;;;;;;;;4897631;29;20493;-63
2022/11/08 03:17:21;;;;;;;3.78;2.50;;;;;;;;;;4898894;29;20068;-62
2022/11/08 03:19:47;;;;;;;8.98;3.40;;;;;;;;;;4898797;29;20049;-62
2022/11/08 03:22:14;;;;;;;4.75;2.60;;;;;;;;;;4897025;29;20458;-62
2022/11/08 03:24:40;;;;;;;4.97;3.08;;;;;;;;;;4898819;29;20053;-62
2022/11/08 03:27:07;;;;;;;7.25;3.58;;;;;;;;;;4898747;29;20045;-62
2022/11/08 03:29:33;;;;;;;7.00;3.45;;;;;;;;;;4898830;29;20056;-63
2022/11/08 03:32:00;;;;;;;5.72;2.85;;;;;;;;;;4897420;29;20413;-63
2022/11/08 03:34:26;;;;;;;7.03;3.97;;;;;;;;;;4898676;29;20081;-63
2022/11/08 03:36:52;;;;;;;11.95;3.20;;;;;;;;;;4897541;29;20506;-62
2022/11/08 03:39:19;;;;;;;8.05;4.28;;;;;;;;;;4897208;29;20045;-63
2022/11/08 03:41:45;;;;;;;3.90;2.97;;;;;;;;;;4897931;29;20516;-62
2022/11/08 03:44:12;;;;;;;6.88;3.33;;;;;;;;;;4898503;29;20503;-63
2022/11/08 03:46:38;;;;;;;10.32;4.20;;;;;;;;;;4897124;29;20056;-63
2022/11/08 03:49:04;;;;;;;6.25;2.78;;;;;;;;;;4897054;29;20463;-63
2022/11/08 03:51:31;;;;;;;6.95;3.10;;;;;;;;;;4898239;29;20040;-63
2022/11/08 03:53:57;;;;;;;8.02;2.95;;;;;;;;;;4897748;29;20049;-63
2022/11/08 03:56:23;;;;;;;9.50;3.25;;;;;;;;;;4912610;29;20458;-63
2022/11/08 03:58:50;;;;;;;8.35;3.38;;;;;;;;;;4898261;29;20053;-62
2022/11/08 04:01:16;;;;;;;6.15;2.80;;;;;;;;;;4897788;29;20092;-62
2022/11/08 04:03:43;;;;;;;5.75;3.20;;;;;;;;;;4897768;29;20048;-63
2022/11/08 04:06:09;;;;;;;8.25;3.53;;;;;;;;;;4898045;29;20056;-62
2022/11/08 04:08:35;;;;;;;6.97;4.10;;;;;;;;;;4897046;29;20100;-63
2022/11/08 04:16:32;;;;;;;3.65;3.03;;;;;;;;;;4897941;29;20045;-62
2022/11/08 04:21:46;;;;;;;7.70;3.50;;;;;;;;;;4897119;29;20057;-62
2022/11/08 04:24:12;;;;;;;7.38;3.80;;;;;;;;;;4896748;29;20059;-63
2022/11/08 04:26:39;;;;;;;5.90;3.22;;;;;;;;;;4912156;29;20105;-62
2022/11/08 04:29:06;;;;;;;8.57;3.13;;;;;;;;;;4897732;29;20048;-63
2022/11/08 04:31:33;;;;;;;9.98;4.43;;;;;;;;;;4897696;29;20504;-63
2022/11/08 04:33:59;;;;;;;7.68;4.25;;;;;;;;;;4897037;29;20505;-62
2022/11/08 04:36:25;;;;;;;7.95;3.38;;;;;;;;;;4897462;29;20077;-63
2022/11/08 04:38:52;;;;;;;5.28;2.90;;;;;;;;;;4897757;29;20049;-63
2022/11/08 04:41:19;;;;;;;7.40;3.33;;;;;;;;;;4897389;29;20104;-63
2022/11/08 04:43:46;;;;;;;7.43;3.35;;;;;;;;;;4911431;29;20053;-63
2022/11/08 04:46:13;;;;;;;8.82;4.55;;;;;;;;;;4896329;29;20040;-63
2022/11/08 04:48:40;;;;;;;8.40;4.05;;;;;;;;;;4897422;29;20520;-63
2022/11/08 04:51:09;;;;;;;8.40;3.30;;;;;;;;;;4912013;29;20056;-63
2022/11/08 04:53:36;;;;;;;7.68;3.80;;;;;;;;;;4895509;29;20101;-63
2022/11/08 04:56:04;;;;;;;9.32;3.60;;;;;;;;;;4911515;29;20040;-63
2022/11/08 04:58:34;;;;;;;5.47;3.45;;;;;;;;;;4911872;29;20048;-64
2022/11/08 05:03:37;;;;;;;6.45;3.53;;;;;;;;;;4911059;29;20500;-61
2022/11/08 05:06:09;;;;;;;6.63;3.85;;;;;;;;;;4915081;29;20039;-61
2022/11/08 05:08:36;;;;;;;8.38;3.65;;;;;;;;;;4916291;29;20052;-61
2022/11/08 05:11:03;;;;;;;5.22;3.53;;;;;;;;;;4916196;29;20043;-61
2022/11/08 05:13:30;;;;;;;9.20;3.50;;;;;;;;;;4915829;29;20040;-61
2022/11/08 05:16:04;;;;;;;5.97;2.90;;;;;;;;;;4914875;29;20099;-61
2022/11/08 05:18:31;;;;;;;3.15;2.35;;;;;;;;;;4916254;29;20072;-61
2022/11/08 05:23:43;;;;;;;3.50;2.35;;;;;;;;;;4914222;29;20500;-61
2022/11/08 05:26:10;;;;;;;6.78;2.45;;;;;;;;;;4918796;29;20519;-61
2022/11/08 05:28:36;;;;;;;4.88;2.15;;;;;;;;;;4919825;29;20044;-61
2022/11/08 05:31:03;;;;;;;3.88;2.10;;;;;;;;;;4919741;29;20493;-61
2022/11/08 05:33:29;;;;;;;3.33;1.92;;;;;;;;;;4919020;29;20048;-62
2022/11/08 05:35:59;;;;;;;5.70;2.72;;;;;;;;;;4919567;29;20484;-61
2022/11/08 05:38:31;;;;;;;5.32;2.20;;;;;;;;;;4919735;29;20107;-61
2022/11/08 05:41:01;;;;;;;5.18;3.10;;;;;;;;;;4919274;29;20048;-62
2022/11/08 05:43:28;;;;;;;5.55;3.10;;;;;;;;;;4933377;29;20139;-62
2022/11/08 05:45:54;;;;;;;5.13;3.22;;;;;;;;;;4919432;29;20438;-62
2022/11/08 05:48:20;;;;;;;5.00;2.92;;;;;;;;;;4919296;29;20099;-60
2022/11/08 05:50:47;;;;;;;5.90;3.03;;;;;;;;;;4919381;29;20448;-60
2022/11/08 05:53:13;;;;;;;6.32;2.90;;;;;;;;;;4917461;29;20111;-60
2022/11/08 05:55:40;;;;;;;3.50;2.70;;;;;;;;;;4919133;29;20047;-60
2022/11/08 05:58:07;;;;;;;5.35;2.80;;;;;;;;;;4919395;29;20444;-60
2022/11/08 06:00:34;;;;;;;3.85;2.90;;;;;;;;;;4919371;29;20044;-60
2022/11/08 06:03:01;;;;;;;7.18;4.45;;;;;;;;;;4918338;29;20052;-60
2022/11/08 06:05:28;;;;;;;7.10;2.72;;;;;;;;;;4919050;29;20096;-60
2022/11/08 06:07:54;;;;;;;3.55;2.55;;;;;;;;;;4918901;29;20040;-60
2022/11/08 06:10:21;;;;;;;5.35;2.97;;;;;;;;;;4917712;29;20056;-60
2022/11/08 06:12:47;;;;;;;5.57;3.20;;;;;;;;;;4918291;29;20044;-60
2022/11/08 06:15:13;;;;;;;6.40;4.03;;;;;;;;;;4918927;29;20103;-61
2022/11/08 06:17:40;;;;;;;4.82;3.30;;;;;;;;;;4933397;29;20454;-61
2022/11/08 06:20:08;;;;;;;6.60;3.28;;;;;;;;;;4918821;29;20095;-61
2022/11/08 06:22:34;;;;;;;8.32;3.83;;;;;;;;;;4918155;29;20048;-60
2022/11/08 06:25:01;;;;;;;14.65;8.25;;;;;;;;;;4918572;29;20044;-60
2022/11/08 06:27:27;;;;;;;8.48;5.95;;;;;;;;;;4918578;29;20048;-60
2022/11/08 06:29:53;;;;;;;6.78;3.72;;;;;;;;;;4918652;29;20040;-60
2022/11/08 06:32:20;;;;;;;6.78;3.60;;;;;;;;;;4918000;29;20390;-60
2022/11/08 06:34:47;;;;;;;5.85;3.00;;;;;;;;;;4918468;29;20092;-61
2022/11/08 06:37:14;;;;;;;6.45;2.85;;;;;;;;;;4917971;29;20040;-62
2022/11/08 06:39:41;;;;;;;8.18;3.83;;;;;;;;;;4933242;29;20413;-61
2022/11/08 06:42:08;;;;;;;4.18;3.38;;;;;;;;;;4917700;29;20527;-61
2022/11/08 06:44:35;;;;;;;5.75;3.63;;;;;;;;;;4918600;29;20493;-62
2022/11/08 06:47:02;;;;;;;5.35;3.28;;;;;;;;;;4918330;29;20040;-61
2022/11/08 06:49:28;;;;;;;5.85;3.58;;;;;;;;;;4932745;29;20066;-62
2022/11/08 06:51:54;;;;;;;6.55;4.97;;;;;;;;;;4917597;29;20132;-61
2022/11/08 06:54:21;;;;;;;11.98;6.13;;;;;;;;;;4918210;29;20048;-61
2022/11/08 06:56:54;;;;;;;7.10;4.53;;;;;;;;;;4918259;29;20496;-62
2022/11/08 06:59:21;;;;;;;4.45;3.35;;;;;;;;;;4918095;29;20568;-62
2022/11/08 07:01:48;;;;;;;6.20;4.35;;;;;;;;;;4917325;29;20040;-61
2022/11/08 07:04:15;;;;;;;7.72;6.00;;;;;;;;;;4917911;29;20048;-61
2022/11/08 07:06:41;;;;;;;11.98;7.20;;;;;;;;;;4916975;29;20132;-61
2022/11/08 07:09:08;;;;;;;8.52;4.15;;;;;;;;;;4917967;29;20068;-61
2022/11/08 07:11:34;;;;;;;8.35;4.40;;;;;;;;;;4917635;29;20575;-61
2022/11/08 07:14:00;;;;;;;5.15;3.85;;;;;;;;;;4916647;29;20048;-61
2022/11/08 07:16:27;;;;;;;8.32;3.85;;;;;;;;;;4932516;29;20040;-60
2022/11/08 07:18:54;;;;;;;5.40;3.70;;;;;;;;;;4916571;29;20505;-61
2022/11/08 07:21:21;;;;;;;7.38;3.53;;;;;;;;;;4917653;29;20048;-61
2022/11/08 07:23:48;;;;;;;6.43;3.83;;;;;;;;;;4931426;29;20050;-60
2022/11/08 07:26:14;;;;;;;7.30;3.53;;;;;;;;;;4917476;29;20119;-60
2022/11/08 07:28:41;;;;;;;7.45;3.78;;;;;;;;;;4917684;29;20044;-61
2022/11/08 07:31:08;;;;;;;6.53;4.43;;;;;;;;;;4916344;29;20143;-61
2022/11/08 07:33:35;;;;;;;10.18;3.90;;;;;;;;;;4931607;29;20044;-61
2022/11/08 07:36:02;;;;;;;7.57;4.00;;;;;;;;;;4932070;29;20111;-61
2022/11/08 07:38:28;;;;;;;7.35;4.60;;;;;;;;;;4917444;29;20047;-61
2022/11/08 07:40:56;;;;;;;5.88;4.53;;;;;;;;;;4917326;29;20095;-61
2022/11/08 07:43:23;;;;;;;9.15;4.70;;;;;;;;;;4916873;29;20228;-61
2022/11/08 07:45:54;;;;;;;5.93;4.05;;;;;;;;;;4931840;29;20048;-61
2022/11/08 07:48:20;;;;;;;6.88;3.90;;;;;;;;;;4916534;29;20119;-61
2022/11/08 07:50:47;;;;;;;10.02;4.53;;;;;;;;;;4916097;29;20107;-61
2022/11/08 07:53:13;;;;;;;7.93;4.22;;;;;;;;;;4916474;29;20103;-61
2022/11/08 07:55:40;;;;;;;8.23;4.43;;;;;;;;;;4915853;29;20061;-61
2022/11/08 07:58:08;;;;;;;6.47;4.45;;;;;;;;;;4931701;29;20413;-61
2022/11/08 08:00:35;;;;;;;8.20;4.50;;;;;;;;;;4916843;29;20044;-61
2022/11/08 08:03:03;;;;;;;7.85;4.32;;;;;;;;;;4916277;29;20047;-61
2022/11/08 08:05:32;;;;;;;6.72;3.90;;;;;;;;;;4917018;29;20032;-61
2022/11/08 08:07:59;;;;;;;5.07;3.33;;;;;;;;;;4916912;29;20044;-61
2022/11/08 08:10:26;;;;;;;4.53;3.33;;;;;;;;;;4931478;29;20043;-61
2022/11/08 08:12:53;;;;;;;3.63;3.00;;;;;;;;;;4916325;29;20135;-61
2022/11/08 08:15:20;;;;;;;7.82;4.18;;;;;;;;;;4917056;29;20413;-61
2022/11/08 08:17:46;;;;;;;8.43;3.58;;;;;;;;;;4917265;29;20037;-61
2022/11/08 08:20:13;;;;;;;4.50;3.28;;;;;;;;;;4917391;29;20036;-61
2022/11/08 08:22:46;;;;;;;6.22;3.97;;;;;;;;;;4916602;29;20040;-61
2022/11/08 08:25:13;;;;;;;9.63;4.38;;;;;;;;;;4918280;29;20036;-61
2022/11/08 08:27:39;;;;;;;9.15;4.38;;;;;;;;;;4919225;29;20095;-61
2022/11/08 08:30:06;;;;;;;6.93;4.35;;;;;;;;;;4934112;29;20040;-61
2022/11/08 08:32:33;;;;;;;5.25;4.28;;;;;;;;;;4919224;29;20048;-61
2022/11/08 08:34:59;;;;;;;9.23;4.72;;;;;;;;;;4922780;29;20096;-61
2022/11/08 08:37:26;;;;;;;9.52;5.32;;;;;;;;;;4924580;29;20044;-61
2022/11/08 08:39:53;;;;;;;11.48;5.40;;;;;;;;;;4929417;29;20228;-61
2022/11/08 08:42:19;;;;;;;11.30;5.97;;;;;;;;;;4931274;29;20059;-61
2022/11/08 08:44:46;;;;;;;13.50;5.53;;;;;;;;;;4925852;29;20493;-61
2022/11/08 08:47:12;;;;;;;9.95;5.07;;;;;;;;;;4919019;29;20048;-61
2022/11/08 08:49:39;;;;;;;11.70;6.72;;;;;;;;;;4920813;29;20569;-61
2022/11/08 08:52:05;;;;;;;30.33;15.57;;;;;;;;;;4930373;29;20048;-61
2022/11/08 08:54:31;;;;;;;12.90;9.20;;;;;;;;;;4926509;29;20520;-61
2022/11/08 08:56:58;;;;;;;8.43;6.88;;;;;;;;;;4919306;29;20059;-62
2022/11/08 08:59:26;;;;;;;11.85;4.60;;;;;;;;;;4920854;29;20115;-61
2022/11/08 09:02:13;;;;;;;5.45;3.25;;;;;;;;;;4924863;29;20079;-61
2022/11/08 09:04:39;;;;;;;7.22;3.15;;;;;;;;;;4925717;29;20052;-61
2022/11/08 09:07:06;;;;;;;3.72;2.40;;;;;;;;;;4922063;29;20084;-61
2022/11/08 09:09:33;;;;;;;2.60;1.90;;;;;;;;;;4921934;29;20063;-62
2022/11/08 09:11:59;;;;;;;3.85;1.60;;;;;;;;;;4920216;29;20040;-61
2022/11/08 09:14:26;;;;;;;1.90;1.40;;;;;;;;;;4917818;29;20107;-61
2022/11/08 09:16:52;;;;;;;7.45;2.60;;;;;;;;;;4917677;29;20469;-61
2022/11/08 09:19:19;;;;;;;5.47;1.60;;;;;;;;;;4919481;29;20052;-61
2022/11/08 09:21:45;;;;;;;2.28;1.20;;;;;;;;;;4916915;29;20072;-61
2022/11/08 09:24:11;;;;;;;2.85;1.35;;;;;;;;;;4916569;29;20044;-60
2022/11/08 09:26:38;;;;;;;3.60;1.48;;;;;;;;;;4917308;29;20040;-60
2022/11/08 09:29:04;;;;;;;2.08;1.40;;;;;;;;;;4917320;29;20572;-61
2022/11/08 09:31:31;;;;;;;2.95;1.50;;;;;;;;;;4916957;29;20464;-61
2022/11/08 09:33:57;;;;;;;2.33;1.70;;;;;;;;;;4919931;29;20048;-61
2022/11/08 09:36:24;;;;;;;3.08;1.70;;;;;;;;;;4918810;29;20048;-62
2022/11/08 09:38:50;;;;;;;2.33;1.70;;;;;;;;;;4916418;29;20051;-62
2022/11/08 09:41:35;;;;;;;3.20;1.45;;;;;;;;;;4915597;29;20044;-61
2022/11/08 09:44:19;;;;;;;4.07;1.80;;;;;;;;;;4915659;29;20409;-62
2022/11/08 09:46:49;;;;;;;1.80;1.30;;;;;;;;;;4915693;29;20040;-61
2022/11/08 09:49:18;;;;;;;4.28;1.80;;;;;;;;;;4930045;29;20048;-61
2022/11/08 09:51:46;;;;;;;3.45;1.70;;;;;;;;;;4929697;29;20116;-62
2022/11/08 09:54:17;;;;;;;2.85;1.50;;;;;;;;;;4915674;29;20048;-61
2022/11/08 09:56:46;;;;;;;2.60;1.15;;;;;;;;;;4915585;29;20104;-62
2022/11/08 09:59:24;;;;;;;7.28;1.65;;;;;;;;;;4915548;29;20454;-62
2022/11/08 10:01:50;;;;;;;4.18;1.90;;;;;;;;;;4914734;29;20072;-62
2022/11/08 10:04:18;;;;;;;6.35;2.15;;;;;;;;;;4915396;29;20045;-62
2022/11/08 10:07:03;;;;;;;2.72;1.58;;;;;;;;;;4915475;29;20044;-62
2022/11/08 10:09:47;;;;;;;5.88;1.90;;;;;;;;;;4915356;29;20064;-62
2022/11/08 10:12:13;;;;;;;2.35;1.50;;;;;;;;;;4931955;29;20404;-62
2022/11/08 10:14:49;;;;;;;2.75;1.52;;;;;;;;;;4919100;29;20047;-61
2022/11/08 10:17:19;;;;;;;2.60;1.48;;;;;;;;;;4919147;29;20548;-62
2022/11/08 10:19:55;;;;;;;1.88;1.40;;;;;;;;;;4933307;29;20055;-62
2022/11/08 10:22:24;;;;;;;2.15;1.40;;;;;;;;;;4918041;29;20044;-62
2022/11/08 10:24:51;;;;;;;1.52;1.25;;;;;;;;;;4933394;29;20052;-62
2022/11/08 10:27:47;;;;;;;2.30;1.30;;;;;;;;;;4933282;29;20063;-62
2022/11/08 10:30:18;;;;;;;5.97;1.40;;;;;;;;;;4910196;29;20079;-62
2022/11/08 10:32:47;;;;;;;1.90;1.40;;;;;;;;;;4917911;29;20537;-62
2022/11/08 10:35:13;;;;;;;1.85;1.23;;;;;;;;;;4918502;29;20040;-62
2022/11/08 10:37:42;;;;;;;2.60;1.70;;;;;;;;;;4918515;29;20051;-62
2022/11/08 10:40:27;;;;;;;4.18;1.70;;;;;;;;;;4933108;29;20055;-62
2022/11/08 10:42:56;;;;;;;1.40;1.30;;;;;;;;;;4917885;29;20493;-62
2022/11/08 10:45:23;;;;;;;2.60;1.30;;;;;;;;;;4917393;29;20040;-60
2022/11/08 10:47:50;;;;;;;1.42;1.10;;;;;;;;;;4918420;29;20040;-62
2022/11/08 10:50:18;;;;;;;4.10;1.17;;;;;;;;;;4918384;29;20108;-62
2022/11/08 10:52:54;;;;;;;2.20;1.13;;;;;;;;;;4917857;29;20048;-62
2022/11/08 10:55:32;;;;;;;1.45;1.02;;;;;;;;;;4918850;29;20047;-62
2022/11/08 10:57:59;;;;;;;1.88;1.20;;;;;;;;;;4918214;29;20044;-62
2022/11/08 11:00:27;;;;;;;1.25;0.98;;;;;;;;;;4918559;29;20052;-61
2022/11/08 11:02:55;;;;;;;1.98;1.15;;;;;;;;;;4917486;29;20386;-62
2022/11/08 11:05:25;;;;;;;1.85;1.10;;;;;;;;;;4918296;29;20050;-60
2022/11/08 11:07:51;;;;;;;3.72;1.50;;;;;;;;;;4918162;29;20043;-62
2022/11/08 11:10:36;;;;;;;4.38;1.30;;;;;;;;;;4931756;29;20386;-60
2022/11/08 11:13:02;;;;;;;3.88;1.70;;;;;;;;;;4917515;29;20048;-61
2022/11/08 11:15:30;;;;;;;2.65;1.40;;;;;;;;;;4918144;29;20052;-61
2022/11/08 11:17:56;;;;;;;1.60;1.25;;;;;;;;;;4918012;29;20515;-61
2022/11/08 11:20:22;;;;;;;2.35;1.10;;;;;;;;;;4916848;29;20044;-62
2022/11/08 11:22:50;;;;;;;1.27;1.10;;;;;;;;;;4915964;29;20048;-62
2022/11/08 11:25:21;;;;;;;1.77;1.20;;;;;;;;;;4916564;29;20386;-62
2022/11/08 11:27:58;;;;;;;2.75;1.20;;;;;;;;;;4917872;29;20051;-61
2022/11/08 11:30:24;;;;;;;3.30;1.35;;;;;;;;;;4917690;29;20040;-62
2022/11/08 11:32:55;;;;;;;2.00;1.13;;;;;;;;;;4917060;29;20139;-62
2022/11/08 11:35:23;;;;;;;1.50;0.90;;;;;;;;;;4917604;29;20063;-61
2022/11/08 11:37:49;;;;;;;2.90;1.50;;;;;;;;;;4917606;29;20564;-62
2022/11/08 11:40:25;;;;;;;1.83;1.30;;;;;;;;;;4917600;29;20052;-63
2022/11/08 11:43:03;;;;;;;2.05;1.23;;;;;;;;;;4931369;29;20489;-62
2022/11/08 11:45:35;;;;;;;2.97;1.80;;;;;;;;;;4917347;29;20043;-62
2022/11/08 11:48:03;;;;;;;1.10;1.00;;;;;;;;;;4917200;29;20092;-62
2022/11/08 11:50:30;;;;;;;1.65;1.00;;;;;;;;;;4917237;29;20044;-62
2022/11/08 11:52:57;;;;;;;2.08;1.00;;;;;;;;;;4916578;29;20044;-62
2022/11/08 11:55:28;;;;;;;1.88;1.35;;;;;;;;;;4917216;29;20457;-62
2022/11/08 11:57:58;;;;;;;2.45;1.10;;;;;;;;;;4916986;29;20040;-61
2022/11/08 12:00:24;;;;;;;1.17;1.02;;;;;;;;;;4917043;29;20049;-62
2022/11/08 12:02:51;;;;;;;1.40;1.23;;;;;;;;;;4930707;29;20411;-62
2022/11/08 12:05:36;;;;;;;2.75;1.20;;;;;;;;;;4931479;29;20387;-62
2022/11/08 12:08:12;;;;;;;2.78;1.00;;;;;;;;;;4916928;29;20473;-63
2022/11/08 12:10:49;;;;;;;2.17;1.00;;;;;;;;;;4916794;29;20085;-63
2022/11/08 12:13:22;;;;;;;3.13;1.20;;;;;;;;;;4916394;29;20043;-63
2022/11/08 12:15:56;;;;;;;2.72;1.38;;;;;;;;;;4916915;29;20048;-63
2022/11/08 12:18:26;;;;;;;2.42;1.35;;;;;;;;;;4915497;29;20063;-63
2022/11/08 12:21:13;;;;;;;3.55;1.17;;;;;;;;;;4916701;29;20052;-63
2022/11/08 12:23:58;;;;;;;2.95;1.20;;;;;;;;;;4916152;29;20052;-63
2022/11/08 12:26:32;;;;;;;2.47;0.98;;;;;;;;;;4916696;29;20040;-63
2022/11/08 12:29:11;;;;;;;2.10;1.10;;;;;;;;;;4917327;29;20112;-63
2022/11/08 12:31:50;;;;;;;2.15;1.90;;;;;;;;;;4916527;29;20051;-63
2022/11/08 12:34:16;;;;;;;3.05;1.05;;;;;;;;;;4916327;29;20115;-63
2022/11/08 12:36:43;;;;;;;4.70;1.10;;;;;;;;;;4916603;29;20100;-64
2022/11/08 12:39:22;;;;;;;4.13;1.30;;;;;;;;;;4916497;29;20053;-63
2022/11/08 12:41:59;;;;;;;2.85;0.90;;;;;;;;;;4915575;29;20075;-63
2022/11/08 12:44:44;;;;;;;1.40;1.10;;;;;;;;;;4915188;29;20036;-63
2022/11/08 12:47:19;;;;;;;1.42;1.33;;;;;;;;;;4916908;29;20469;-63
2022/11/08 12:50:05;;;;;;;2.85;1.20;;;;;;;;;;4916531;29;20067;-63
2022/11/08 12:52:51;;;;;;;3.80;1.10;;;;;;;;;;4915967;29;20044;-63
2022/11/08 12:55:37;;;;;;;1.80;1.00;;;;;;;;;;4908611;29;20131;-63
2022/11/08 12:58:27;;;;;;;2.03;1.38;;;;;;;;;;4916426;29;20548;-61
2022/11/08 13:01:08;;;;;;;1.70;1.15;;;;;;;;;;4913148;29;20397;-62
2022/11/08 13:03:41;;;;;;;2.28;1.25;;;;;;;;;;4916176;29;20095;-61
2022/11/08 13:06:20;;;;;;;1.50;1.20;;;;;;;;;;4916875;29;20055;-62
2022/11/08 13:08:56;;;;;;;1.85;1.08;;;;;;;;;;4916622;29;20335;-63
2022/11/08 13:11:25;;;;;;;1.80;1.20;;;;;;;;;;4916784;29;20123;-62
2022/11/08 13:13:55;;;;;;;3.35;1.15;;;;;;;;;;4916522;29;20457;-62
2022/11/08 13:16:23;;;;;;;2.22;1.20;;;;;;;;;;4931678;29;20520;-62
2022/11/08 13:18:51;;;;;;;2.38;1.27;;;;;;;;;;4917718;29;20076;-62
2022/11/08 13:21:27;;;;;;;4.22;1.52;;;;;;;;;;4917063;29;20044;-61
2022/11/08 13:24:13;;;;;;;3.78;1.30;;;;;;;;;;4917872;29;20072;-62
2022/11/08 13:27:19;;;;;;;3.40;1.58;;;;;;;;;;4917965;29;20075;-64
2022/11/08 13:29:45;;;;;;;1.80;1.30;;;;;;;;;;4917948;29;20044;-63
2022/11/08 13:32:19;;;;;;;2.90;1.13;;;;;;;;;;4915331;29;20405;-62
2022/11/08 13:34:49;;;;;;;3.33;1.20;;;;;;;;;;4930867;29;20052;-63
2022/11/08 13:37:21;;;;;;;2.22;1.17;;;;;;;;;;4916469;29;20048;-62
2022/11/08 13:39:48;;;;;;;1.80;1.15;;;;;;;;;;4930343;29;20048;-62
2022/11/08 13:42:14;;;;;;;3.08;1.10;;;;;;;;;;4915002;29;20439;-62
2022/11/08 13:44:53;;;;;;;3.10;1.20;;;;;;;;;;4915653;29;20095;-62
2022/11/08 13:47:31;;;;;;;1.33;1.15;;;;;;;;;;4918694;29;20051;-62
2022/11/08 13:50:16;;;;;;;2.67;1.20;;;;;;;;;;4919454;29;20044;-62
2022/11/08 13:52:59;;;;;;;2.40;1.30;;;;;;;;;;4933327;29;20048;-62
2022/11/08 13:55:41;;;;;;;4.63;1.50;;;;;;;;;;4933999;29;20119;-63
2022/11/08 13:58:26;;;;;;;2.38;1.55;;;;;;;;;;4919274;29;20080;-61
2022/11/08 14:00:53;;;;;;;1.50;1.20;;;;;;;;;;4919343;29;20044;-62
2022/11/08 14:03:31;;;;;;;3.33;1.55;;;;;;;;;;4918378;29;20104;-61
2022/11/08 14:06:00;;;;;;;3.90;1.40;;;;;;;;;;4919311;29;20095;-62
2022/11/08 14:08:28;;;;;;;2.58;1.33;;;;;;;;;;4919335;29;20044;-62
2022/11/08 14:11:02;;;;;;;2.55;1.52;;;;;;;;;;4919150;29;20046;-62
2022/11/08 14:13:33;;;;;;;2.25;1.40;;;;;;;;;;4919052;29;20056;-61
2022/11/08 14:16:05;;;;;;;2.47;1.65;;;;;;;;;;4919512;29;20048;-62
2022/11/08 14:18:33;;;;;;;3.20;1.37;;;;;;;;;;4919673;29;20052;-61
2022/11/08 14:21:02;;;;;;;1.77;1.40;;;;;;;;;;4919314;29;20048;-61
2022/11/08 14:23:34;;;;;;;1.40;1.30;;;;;;;;;;4918509;29;20560;-62
2022/11/08 14:26:03;;;;;;;2.45;1.45;;;;;;;;;;4919046;29;20055;-62
2022/11/08 14:28:34;;;;;;;2.40;1.50;;;;;;;;;;4918935;29;20044;-62
2022/11/08 14:31:02;;;;;;;3.33;1.58;;;;;;;;;;4933552;29;20044;-61
2022/11/08 14:33:29;;;;;;;1.42;1.20;;;;;;;;;;4918289;29;20052;-62
2022/11/08 14:36:00;;;;;;;4.45;2.00;;;;;;;;;;4918969;29;20099;-61
2022/11/08 14:38:27;;;;;;;3.33;1.88;;;;;;;;;;4919005;29;20055;-61
2022/11/08 14:40:55;;;;;;;3.25;1.90;;;;;;;;;;4918777;29;20048;-62
2022/11/08 14:43:22;;;;;;;4.18;1.70;;;;;;;;;;4932894;29;20501;-62
2022/11/08 14:45:49;;;;;;;2.80;1.42;;;;;;;;;;4919032;29;20044;-62
2022/11/08 14:48:25;;;;;;;4.55;2.15;;;;;;;;;;4932906;29;20048;-62
2022/11/08 14:51:02;;;;;;;8.10;3.47;;;;;;;;;;4918200;29;20051;-62
2022/11/08 14:53:30;;;;;;;4.68;2.80;;;;;;;;;;4917867;29;20048;-62
2022/11/08 14:56:02;;;;;;;4.20;2.28;;;;;;;;;;4932798;29;20556;-60
2022/11/08 14:58:29;;;;;;;7.30;2.58;;;;;;;;;;4918285;29;20052;-62
2022/11/08 15:00:56;;;;;;;6.50;2.17;;;;;;;;;;4918290;29;20048;-61
2022/11/08 15:03:26;;;;;;;5.82;2.20;;;;;;;;;;4931982;29;20493;-62
2022/11/08 15:05:56;;;;;;;4.47;2.90;;;;;;;;;;4918483;29;20044;-63
2022/11/08 15:08:28;;;;;;;4.70;2.38;;;;;;;;;;4918053;29;20485;-63
2022/11/08 15:11:00;;;;;;;3.85;2.42;;;;;;;;;;4918079;29;20041;-63
2022/11/08 15:13:29;;;;;;;3.88;2.30;;;;;;;;;;4917402;29;20112;-62
2022/11/08 15:16:00;;;;;;;4.63;2.85;;;;;;;;;;4917942;29;20044;-61
2022/11/08 15:18:29;;;;;;;7.13;4.43;;;;;;;;;;4918086;29;20501;-61